sensor_id;sensor_type;location;lat;lon;timestamp;P1;durP1;ratioP1;P2;durP2;ratioP2
64199;SDS011;50516;52.272;5.136;2023-04-01T00:00:10;23.60;;;10.20;;
64199;SDS011;50516;52.272;5.136;2023-04-01T00:02:36;34.75;;;10.13;;
64199;SDS011;50516;52.272;5.136;2023-04-01T00:05:01;31.10;;;11.18;;
64199;SDS011;50516;52.272;5.136;2023-04-01T00:07:27;24.08;;;10.80;;
64199;SDS011;50516;52.272;5.136;2023-04-01T00:09:52;29.42;;;10.70;;
64199;SDS011;50516;52.272;5.136;2023-04-01T00:12:17;31.55;;;13.15;;
64199;SDS011;50516;52.272;5.136;2023-04-01T00:14:42;33.97;;;12.48;;
64199;SDS011;50516;52.272;5.136;2023-04-01T00:17:08;32.58;;;13.43;;
64199;SDS011;50516;52.272;5.136;2023-04-01T00:19:33;36.80;;;15.40;;
64199;SDS011;50516;52.272;5.136;2023-04-01T00:21:59;33.50;;;14.18;;
64199;SDS011;50516;52.272;5.136;2023-04-01T00:24:24;35.20;;;14.77;;
64199;SDS011;50516;52.272;5.136;2023-04-01T00:26:49;30.77;;;13.85;;
64199;SDS011;50516;52.272;5.136;2023-04-01T00:29:15;28.40;;;14.23;;
64199;SDS011;50516;52.272;5.136;2023-04-01T00:31:40;35.83;;;14.65;;
64199;SDS011;50516;52.272;5.136;2023-04-01T00:34:05;39.60;;;15.82;;
64199;SDS011;50516;52.272;5.136;2023-04-01T00:36:31;30.92;;;15.35;;
64199;SDS011;50516;52.272;5.136;2023-04-01T00:38:57;38.25;;;15.77;;
64199;SDS011;50516;52.272;5.136;2023-04-01T00:41:23;31.50;;;15.68;;
64199;SDS011;50516;52.272;5.136;2023-04-01T00:43:51;34.00;;;15.60;;
64199;SDS011;50516;52.272;5.136;2023-04-01T00:46:16;40.13;;;18.20;;
64199;SDS011;50516;52.272;5.136;2023-04-01T00:48:43;37.85;;;17.00;;
64199;SDS011;50516;52.272;5.136;2023-04-01T00:51:17;40.13;;;14.88;;
64199;SDS011;50516;52.272;5.136;2023-04-01T00:53:50;33.05;;;13.93;;
64199;SDS011;50516;52.272;5.136;2023-04-01T00:56:18;34.03;;;14.57;;
64199;SDS011;50516;52.272;5.136;2023-04-01T00:58:51;27.67;;;12.43;;
64199;SDS011;50516;52.272;5.136;2023-04-01T01:01:29;39.00;;;13.93;;
64199;SDS011;50516;52.272;5.136;2023-04-01T01:03:56;26.30;;;11.43;;
64199;SDS011;50516;52.272;5.136;2023-04-01T01:09:10;28.80;;;12.02;;
64199;SDS011;50516;52.272;5.136;2023-04-01T01:11:48;27.77;;;11.63;;
64199;SDS011;50516;52.272;5.136;2023-04-01T01:14:29;25.33;;;11.48;;
64199;SDS011;50516;52.272;5.136;2023-04-01T01:17:11;25.35;;;10.27;;
64199;SDS011;50516;52.272;5.136;2023-04-01T01:20:10;25.42;;;9.60;;
64199;SDS011;50516;52.272;5.136;2023-04-01T01:28:57;19.23;;;8.65;;
64199;SDS011;50516;52.272;5.136;2023-04-01T01:37:30;17.10;;;7.40;;
64199;SDS011;50516;52.272;5.136;2023-04-01T01:40:04;13.40;;;6.68;;
64199;SDS011;50516;52.272;5.136;2023-04-01T01:42:33;16.73;;;6.93;;
64199;SDS011;50516;52.272;5.136;2023-04-01T01:45:02;15.18;;;7.40;;
64199;SDS011;50516;52.272;5.136;2023-04-01T01:47:30;15.15;;;7.97;;
64199;SDS011;50516;52.272;5.136;2023-04-01T01:49:57;12.88;;;7.32;;
64199;SDS011;50516;52.272;5.136;2023-04-01T01:52:24;14.10;;;6.30;;
64199;SDS011;50516;52.272;5.136;2023-04-01T01:54:53;15.35;;;6.32;;
64199;SDS011;50516;52.272;5.136;2023-04-01T01:57:25;16.23;;;6.38;;
64199;SDS011;50516;52.272;5.136;2023-04-01T01:59:55;13.80;;;6.60;;
64199;SDS011;50516;52.272;5.136;2023-04-01T02:02:24;12.23;;;6.10;;
64199;SDS011;50516;52.272;5.136;2023-04-01T02:04:51;14.88;;;6.05;;
64199;SDS011;50516;52.272;5.136;2023-04-01T02:07:22;11.63;;;6.45;;
64199;SDS011;50516;52.272;5.136;2023-04-01T02:09:52;13.53;;;6.83;;
64199;SDS011;50516;52.272;5.136;2023-04-01T02:12:21;17.00;;;7.60;;
64199;SDS011;50516;52.272;5.136;2023-04-01T02:17:24;12.30;;;7.07;;
64199;SDS011;50516;52.272;5.136;2023-04-01T02:20:06;17.98;;;8.98;;
64199;SDS011;50516;52.272;5.136;2023-04-01T02:22:43;10.93;;;7.07;;
64199;SDS011;50516;52.272;5.136;2023-04-01T02:25:14;12.93;;;7.13;;
64199;SDS011;50516;52.272;5.136;2023-04-01T02:27:43;13.27;;;7.43;;
64199;SDS011;50516;52.272;5.136;2023-04-01T02:30:10;14.70;;;8.55;;
64199;SDS011;50516;52.272;5.136;2023-04-01T02:32:37;14.57;;;7.75;;
64199;SDS011;50516;52.272;5.136;2023-04-01T02:35:05;15.95;;;8.55;;
64199;SDS011;50516;52.272;5.136;2023-04-01T02:37:33;15.13;;;8.80;;
64199;SDS011;50516;52.272;5.136;2023-04-01T02:40:03;13.77;;;8.75;;
64199;SDS011;50516;52.272;5.136;2023-04-01T02:42:34;16.52;;;9.40;;
64199;SDS011;50516;52.272;5.136;2023-04-01T02:45:00;13.43;;;8.57;;
64199;SDS011;50516;52.272;5.136;2023-04-01T02:47:29;16.67;;;8.93;;
64199;SDS011;50516;52.272;5.136;2023-04-01T02:49:54;20.17;;;10.85;;
64199;SDS011;50516;52.272;5.136;2023-04-01T02:52:23;19.40;;;11.30;;
64199;SDS011;50516;52.272;5.136;2023-04-01T02:54:49;19.90;;;10.73;;
64199;SDS011;50516;52.272;5.136;2023-04-01T02:57:15;24.75;;;11.40;;
64199;SDS011;50516;52.272;5.136;2023-04-01T02:59:40;26.10;;;14.82;;
64199;SDS011;50516;52.272;5.136;2023-04-01T03:02:06;28.58;;;13.48;;
64199;SDS011;50516;52.272;5.136;2023-04-01T03:04:31;20.77;;;13.80;;
64199;SDS011;50516;52.272;5.136;2023-04-01T03:06:57;26.10;;;14.20;;
64199;SDS011;50516;52.272;5.136;2023-04-01T03:09:22;24.85;;;13.77;;
64199;SDS011;50516;52.272;5.136;2023-04-01T03:11:47;26.15;;;13.50;;
64199;SDS011;50516;52.272;5.136;2023-04-01T03:14:13;24.55;;;13.15;;
64199;SDS011;50516;52.272;5.136;2023-04-01T03:16:38;26.42;;;13.10;;
64199;SDS011;50516;52.272;5.136;2023-04-01T03:19:03;22.70;;;12.38;;
64199;SDS011;50516;52.272;5.136;2023-04-01T03:21:29;21.75;;;12.77;;
64199;SDS011;50516;52.272;5.136;2023-04-01T03:23:54;21.05;;;12.07;;
64199;SDS011;50516;52.272;5.136;2023-04-01T03:26:20;20.85;;;12.60;;
64199;SDS011;50516;52.272;5.136;2023-04-01T03:28:46;22.17;;;11.68;;
64199;SDS011;50516;52.272;5.136;2023-04-01T03:31:11;20.10;;;11.15;;
64199;SDS011;50516;52.272;5.136;2023-04-01T03:33:41;20.13;;;11.98;;
64199;SDS011;50516;52.272;5.136;2023-04-01T03:36:06;21.58;;;11.95;;
64199;SDS011;50516;52.272;5.136;2023-04-01T03:38:33;20.73;;;12.43;;
64199;SDS011;50516;52.272;5.136;2023-04-01T03:40:59;22.85;;;11.73;;
64199;SDS011;50516;52.272;5.136;2023-04-01T03:43:25;16.85;;;8.70;;
64199;SDS011;50516;52.272;5.136;2023-04-01T03:45:51;14.38;;;8.90;;
64199;SDS011;50516;52.272;5.136;2023-04-01T03:48:17;12.48;;;7.32;;
64199;SDS011;50516;52.272;5.136;2023-04-01T03:50:42;11.40;;;7.10;;
64199;SDS011;50516;52.272;5.136;2023-04-01T03:53:09;9.65;;;7.15;;
64199;SDS011;50516;52.272;5.136;2023-04-01T03:55:37;11.40;;;6.65;;
64199;SDS011;50516;52.272;5.136;2023-04-01T03:58:05;9.02;;;6.10;;
64199;SDS011;50516;52.272;5.136;2023-04-01T04:00:32;8.70;;;5.07;;
64199;SDS011;50516;52.272;5.136;2023-04-01T04:02:58;10.38;;;5.68;;
64199;SDS011;50516;52.272;5.136;2023-04-01T04:05:24;11.73;;;5.45;;
64199;SDS011;50516;52.272;5.136;2023-04-01T04:07:50;10.35;;;5.65;;
64199;SDS011;50516;52.272;5.136;2023-04-01T04:10:16;12.63;;;5.90;;
64199;SDS011;50516;52.272;5.136;2023-04-01T04:12:44;12.27;;;6.57;;
64199;SDS011;50516;52.272;5.136;2023-04-01T04:15:09;8.55;;;6.20;;
64199;SDS011;50516;52.272;5.136;2023-04-01T04:17:35;9.13;;;6.35;;
64199;SDS011;50516;52.272;5.136;2023-04-01T04:20:01;9.90;;;7.10;;
64199;SDS011;50516;52.272;5.136;2023-04-01T04:22:26;10.63;;;7.72;;
64199;SDS011;50516;52.272;5.136;2023-04-01T04:24:51;9.02;;;6.80;;
64199;SDS011;50516;52.272;5.136;2023-04-01T04:27:17;10.23;;;7.25;;
64199;SDS011;50516;52.272;5.136;2023-04-01T04:29:42;10.10;;;7.00;;
64199;SDS011;50516;52.272;5.136;2023-04-01T04:32:08;10.60;;;7.60;;
64199;SDS011;50516;52.272;5.136;2023-04-01T04:34:33;11.23;;;7.88;;
64199;SDS011;50516;52.272;5.136;2023-04-01T04:36:59;10.20;;;7.13;;
64199;SDS011;50516;52.272;5.136;2023-04-01T04:39:24;12.10;;;7.63;;
64199;SDS011;50516;52.272;5.136;2023-04-01T04:41:50;11.93;;;7.97;;
64199;SDS011;50516;52.272;5.136;2023-04-01T04:44:15;10.70;;;7.82;;
64199;SDS011;50516;52.272;5.136;2023-04-01T04:46:40;12.70;;;8.70;;
64199;SDS011;50516;52.272;5.136;2023-04-01T04:49:06;14.82;;;8.70;;
64199;SDS011;50516;52.272;5.136;2023-04-01T04:51:32;12.55;;;8.40;;
64199;SDS011;50516;52.272;5.136;2023-04-01T04:54:00;13.48;;;10.02;;
64199;SDS011;50516;52.272;5.136;2023-04-01T04:56:29;13.55;;;10.45;;
64199;SDS011;50516;52.272;5.136;2023-04-01T04:58:55;13.95;;;10.18;;
64199;SDS011;50516;52.272;5.136;2023-04-01T05:01:21;13.38;;;9.98;;
64199;SDS011;50516;52.272;5.136;2023-04-01T05:03:46;13.48;;;9.57;;
64199;SDS011;50516;52.272;5.136;2023-04-01T05:06:13;16.85;;;10.55;;
64199;SDS011;50516;52.272;5.136;2023-04-01T05:08:40;15.73;;;10.10;;
64199;SDS011;50516;52.272;5.136;2023-04-01T05:11:10;15.25;;;10.75;;
64199;SDS011;50516;52.272;5.136;2023-04-01T05:13:38;15.43;;;9.90;;
64199;SDS011;50516;52.272;5.136;2023-04-01T05:16:07;12.98;;;9.90;;
64199;SDS011;50516;52.272;5.136;2023-04-01T05:18:33;12.95;;;9.25;;
64199;SDS011;50516;52.272;5.136;2023-04-01T05:20:59;15.02;;;10.02;;
64199;SDS011;50516;52.272;5.136;2023-04-01T05:23:24;14.05;;;10.02;;
64199;SDS011;50516;52.272;5.136;2023-04-01T05:25:49;13.15;;;9.30;;
64199;SDS011;50516;52.272;5.136;2023-04-01T05:28:18;13.82;;;9.93;;
64199;SDS011;50516;52.272;5.136;2023-04-01T05:30:44;15.35;;;8.65;;
64199;SDS011;50516;52.272;5.136;2023-04-01T05:33:10;14.95;;;9.85;;
64199;SDS011;50516;52.272;5.136;2023-04-01T05:35:36;14.60;;;10.07;;
64199;SDS011;50516;52.272;5.136;2023-04-01T05:38:02;14.93;;;10.43;;
64199;SDS011;50516;52.272;5.136;2023-04-01T05:40:28;13.52;;;9.80;;
64199;SDS011;50516;52.272;5.136;2023-04-01T05:42:54;13.38;;;9.73;;
64199;SDS011;50516;52.272;5.136;2023-04-01T05:45:19;13.25;;;9.25;;
64199;SDS011;50516;52.272;5.136;2023-04-01T05:47:45;14.25;;;9.57;;
64199;SDS011;50516;52.272;5.136;2023-04-01T05:50:10;12.88;;;8.88;;
64199;SDS011;50516;52.272;5.136;2023-04-01T05:52:36;16.67;;;9.07;;
64199;SDS011;50516;52.272;5.136;2023-04-01T05:55:02;17.85;;;10.38;;
64199;SDS011;50516;52.272;5.136;2023-04-01T05:57:29;13.18;;;8.85;;
64199;SDS011;50516;52.272;5.136;2023-04-01T05:59:55;14.95;;;9.05;;
64199;SDS011;50516;52.272;5.136;2023-04-01T06:02:20;14.18;;;9.23;;
64199;SDS011;50516;52.272;5.136;2023-04-01T06:04:46;13.32;;;8.50;;
64199;SDS011;50516;52.272;5.136;2023-04-01T06:07:15;13.40;;;8.75;;
64199;SDS011;50516;52.272;5.136;2023-04-01T06:09:42;14.50;;;9.00;;
64199;SDS011;50516;52.272;5.136;2023-04-01T06:14:57;11.93;;;7.78;;
64199;SDS011;50516;52.272;5.136;2023-04-01T06:26:34;17.85;;;10.05;;
64199;SDS011;50516;52.272;5.136;2023-04-01T06:29:27;13.43;;;8.57;;
64199;SDS011;50516;52.272;5.136;2023-04-01T06:40:43;15.13;;;10.30;;
64199;SDS011;50516;52.272;5.136;2023-04-01T06:57:49;15.73;;;9.00;;
64199;SDS011;50516;52.272;5.136;2023-04-01T07:00:25;16.63;;;9.85;;
64199;SDS011;50516;52.272;5.136;2023-04-01T07:02:57;16.27;;;10.27;;
64199;SDS011;50516;52.272;5.136;2023-04-01T07:05:30;15.90;;;9.75;;
64199;SDS011;50516;52.272;5.136;2023-04-01T07:07:57;16.70;;;9.40;;
64199;SDS011;50516;52.272;5.136;2023-04-01T07:10:40;15.07;;;9.15;;
64199;SDS011;50516;52.272;5.136;2023-04-01T07:13:17;15.63;;;9.77;;
64199;SDS011;50516;52.272;5.136;2023-04-01T07:15:51;17.48;;;9.90;;
64199;SDS011;50516;52.272;5.136;2023-04-01T07:18:34;15.73;;;9.07;;
64199;SDS011;50516;52.272;5.136;2023-04-01T07:21:09;17.55;;;10.60;;
64199;SDS011;50516;52.272;5.136;2023-04-01T07:23:44;21.55;;;11.52;;
64199;SDS011;50516;52.272;5.136;2023-04-01T07:26:19;20.50;;;11.80;;
64199;SDS011;50516;52.272;5.136;2023-04-01T07:28:46;23.58;;;11.45;;
64199;SDS011;50516;52.272;5.136;2023-04-01T07:34:09;24.75;;;13.27;;
64199;SDS011;50516;52.272;5.136;2023-04-01T07:36:48;21.67;;;12.85;;
64199;SDS011;50516;52.272;5.136;2023-04-01T07:39:41;24.33;;;11.50;;
64199;SDS011;50516;52.272;5.136;2023-04-01T07:45:29;22.20;;;13.05;;
64199;SDS011;50516;52.272;5.136;2023-04-01T07:50:47;21.42;;;12.93;;
64199;SDS011;50516;52.272;5.136;2023-04-01T07:56:13;21.92;;;12.60;;
64199;SDS011;50516;52.272;5.136;2023-04-01T08:04:17;23.15;;;13.70;;
64199;SDS011;50516;52.272;5.136;2023-04-01T08:07:17;21.38;;;13.23;;
64199;SDS011;50516;52.272;5.136;2023-04-01T08:10:01;20.13;;;12.35;;
64199;SDS011;50516;52.272;5.136;2023-04-01T08:12:52;17.90;;;11.00;;
64199;SDS011;50516;52.272;5.136;2023-04-01T08:15:45;19.13;;;11.32;;
64199;SDS011;50516;52.272;5.136;2023-04-01T08:21:01;27.40;;;12.45;;
64199;SDS011;50516;52.272;5.136;2023-04-01T08:26:02;21.17;;;11.63;;
64199;SDS011;50516;52.272;5.136;2023-04-01T08:28:37;21.23;;;12.23;;
64199;SDS011;50516;52.272;5.136;2023-04-01T08:31:36;21.33;;;11.13;;
64199;SDS011;50516;52.272;5.136;2023-04-01T08:34:11;18.02;;;10.98;;
64199;SDS011;50516;52.272;5.136;2023-04-01T08:36:44;17.38;;;9.60;;
64199;SDS011;50516;52.272;5.136;2023-04-01T08:39:18;16.88;;;10.88;;
64199;SDS011;50516;52.272;5.136;2023-04-01T08:50:36;14.15;;;9.30;;
64199;SDS011;50516;52.272;5.136;2023-04-01T09:04:46;14.15;;;8.90;;
64199;SDS011;50516;52.272;5.136;2023-04-01T09:13:05;17.33;;;9.32;;
64199;SDS011;50516;52.272;5.136;2023-04-01T09:21:41;14.32;;;8.50;;
64199;SDS011;50516;52.272;5.136;2023-04-01T09:35:46;16.10;;;9.15;;
64199;SDS011;50516;52.272;5.136;2023-04-01T09:38:21;14.32;;;8.60;;
64199;SDS011;50516;52.272;5.136;2023-04-01T09:52:23;16.30;;;11.07;;
64199;SDS011;50516;52.272;5.136;2023-04-01T09:54:59;14.85;;;9.63;;
64199;SDS011;50516;52.272;5.136;2023-04-01T10:42:23;13.63;;;10.23;;
64199;SDS011;50516;52.272;5.136;2023-04-01T10:50:24;14.32;;;9.50;;
64199;SDS011;50516;52.272;5.136;2023-04-01T10:52:56;12.35;;;8.75;;
64199;SDS011;50516;52.272;5.136;2023-04-01T10:56:09;11.93;;;9.00;;
64199;SDS011;50516;52.272;5.136;2023-04-01T11:12:37;10.00;;;7.60;;
64199;SDS011;50516;52.272;5.136;2023-04-01T11:18:49;9.68;;;7.25;;
64199;SDS011;50516;52.272;5.136;2023-04-01T11:34:02;14.68;;;11.20;;
64199;SDS011;50516;52.272;5.136;2023-04-01T11:36:40;16.05;;;11.82;;
64199;SDS011;50516;52.272;5.136;2023-04-01T11:45:35;18.52;;;12.80;;
64199;SDS011;50516;52.272;5.136;2023-04-01T12:14:41;25.73;;;14.77;;
64199;SDS011;50516;52.272;5.136;2023-04-01T12:34:20;13.75;;;10.27;;
64199;SDS011;50516;52.272;5.136;2023-04-01T12:40:13;12.55;;;9.25;;
64199;SDS011;50516;52.272;5.136;2023-04-01T12:51:31;13.80;;;9.17;;
64199;SDS011;50516;52.272;5.136;2023-04-01T12:59:46;12.25;;;8.70;;
64199;SDS011;50516;52.272;5.136;2023-04-01T13:02:20;12.90;;;8.60;;
64199;SDS011;50516;52.272;5.136;2023-04-01T13:07:51;16.50;;;7.93;;
64199;SDS011;50516;52.272;5.136;2023-04-01T13:15:49;9.30;;;7.43;;
64199;SDS011;50516;52.272;5.136;2023-04-01T13:18:23;10.80;;;6.95;;
64199;SDS011;50516;52.272;5.136;2023-04-01T13:29:38;8.40;;;6.55;;
64199;SDS011;50516;52.272;5.136;2023-04-01T13:37:54;9.02;;;7.28;;
64199;SDS011;50516;52.272;5.136;2023-04-01T13:43:19;10.32;;;7.78;;
64199;SDS011;50516;52.272;5.136;2023-04-01T13:46:05;10.90;;;8.63;;
64199;SDS011;50516;52.272;5.136;2023-04-01T13:57:09;10.75;;;8.35;;
64199;SDS011;50516;52.272;5.136;2023-04-01T14:00:02;11.20;;;8.07;;
64199;SDS011;50516;52.272;5.136;2023-04-01T14:02:44;10.05;;;7.85;;
64199;SDS011;50516;52.272;5.136;2023-04-01T14:11:09;9.77;;;7.30;;
64199;SDS011;50516;52.272;5.136;2023-04-01T14:19:08;11.77;;;8.02;;
64199;SDS011;50516;52.272;5.136;2023-04-01T14:21:50;9.45;;;7.13;;
64199;SDS011;50516;52.272;5.136;2023-04-01T14:24:32;11.05;;;8.35;;
64199;SDS011;50516;52.272;5.136;2023-04-01T14:27:21;9.77;;;7.45;;
64199;SDS011;50516;52.272;5.136;2023-04-01T14:32:52;10.50;;;7.72;;
64199;SDS011;50516;52.272;5.136;2023-04-01T14:43:49;9.88;;;7.47;;
64199;SDS011;50516;52.272;5.136;2023-04-01T14:46:45;8.95;;;7.47;;
64199;SDS011;50516;52.272;5.136;2023-04-01T14:49:15;9.65;;;7.38;;
64199;SDS011;50516;52.272;5.136;2023-04-01T14:51:47;9.80;;;8.07;;
64199;SDS011;50516;52.272;5.136;2023-04-01T14:54:16;9.63;;;7.50;;
64199;SDS011;50516;52.272;5.136;2023-04-01T14:56:49;16.92;;;8.30;;
64199;SDS011;50516;52.272;5.136;2023-04-01T14:59:39;10.88;;;7.57;;
64199;SDS011;50516;52.272;5.136;2023-04-01T15:08:05;10.57;;;6.93;;
64199;SDS011;50516;52.272;5.136;2023-04-01T15:25:23;6.97;;;6.18;;
64199;SDS011;50516;52.272;5.136;2023-04-01T15:28:01;10.05;;;7.18;;
64199;SDS011;50516;52.272;5.136;2023-04-01T15:30:32;9.77;;;6.90;;
64199;SDS011;50516;52.272;5.136;2023-04-01T15:41:14;7.90;;;6.38;;
64199;SDS011;50516;52.272;5.136;2023-04-01T15:43:44;8.25;;;6.00;;
64199;SDS011;50516;52.272;5.136;2023-04-01T16:08:42;8.73;;;5.95;;
64199;SDS011;50516;52.272;5.136;2023-04-01T16:11:42;6.03;;;4.88;;
64199;SDS011;50516;52.272;5.136;2023-04-01T16:16:51;7.47;;;4.85;;
64199;SDS011;50516;52.272;5.136;2023-04-01T16:22:31;8.27;;;5.65;;
64199;SDS011;50516;52.272;5.136;2023-04-01T16:28:03;7.82;;;5.75;;
64199;SDS011;50516;52.272;5.136;2023-04-01T16:30:43;7.20;;;5.50;;
64199;SDS011;50516;52.272;5.136;2023-04-01T16:33:15;7.45;;;5.78;;
64199;SDS011;50516;52.272;5.136;2023-04-01T16:35:47;7.85;;;5.88;;
64199;SDS011;50516;52.272;5.136;2023-04-01T16:44:05;6.30;;;5.00;;
64199;SDS011;50516;52.272;5.136;2023-04-01T16:46:39;5.57;;;4.20;;
64199;SDS011;50516;52.272;5.136;2023-04-01T16:51:37;6.00;;;3.40;;
64199;SDS011;50516;52.272;5.136;2023-04-01T16:54:14;4.55;;;3.30;;
64199;SDS011;50516;52.272;5.136;2023-04-01T16:57:01;3.92;;;3.10;;
64199;SDS011;50516;52.272;5.136;2023-04-01T16:59:44;5.35;;;3.45;;
64199;SDS011;50516;52.272;5.136;2023-04-01T17:04:49;5.28;;;2.97;;
64199;SDS011;50516;52.272;5.136;2023-04-01T17:07:26;7.65;;;2.80;;
64199;SDS011;50516;52.272;5.136;2023-04-01T17:10:07;5.35;;;3.35;;
64199;SDS011;50516;52.272;5.136;2023-04-01T17:12:43;3.15;;;2.53;;
64199;SDS011;50516;52.272;5.136;2023-04-01T17:15:26;4.88;;;3.72;;
64199;SDS011;50516;52.272;5.136;2023-04-01T17:18:11;4.80;;;3.92;;
64199;SDS011;50516;52.272;5.136;2023-04-01T17:23:12;7.22;;;5.60;;
64199;SDS011;50516;52.272;5.136;2023-04-01T17:28:41;8.63;;;5.97;;
64199;SDS011;50516;52.272;5.136;2023-04-01T17:42:40;5.22;;;4.40;;
64199;SDS011;50516;52.272;5.136;2023-04-01T17:45:16;9.85;;;6.60;;
64199;SDS011;50516;52.272;5.136;2023-04-01T17:56:11;5.88;;;3.72;;
64199;SDS011;50516;52.272;5.136;2023-04-01T18:01:56;5.95;;;3.95;;
64199;SDS011;50516;52.272;5.136;2023-04-01T18:04:43;6.00;;;3.75;;
64199;SDS011;50516;52.272;5.136;2023-04-01T18:21:02;6.55;;;4.00;;
64199;SDS011;50516;52.272;5.136;2023-04-01T18:23:51;4.43;;;3.55;;
64199;SDS011;50516;52.272;5.136;2023-04-01T18:29:37;4.28;;;3.58;;
64199;SDS011;50516;52.272;5.136;2023-04-01T18:32:08;7.20;;;3.80;;
64199;SDS011;50516;52.272;5.136;2023-04-01T18:34:48;9.32;;;5.50;;
64199;SDS011;50516;52.272;5.136;2023-04-01T18:37:22;9.02;;;6.60;;
64199;SDS011;50516;52.272;5.136;2023-04-01T18:39:53;5.60;;;4.53;;
64199;SDS011;50516;52.272;5.136;2023-04-01T18:45:18;6.50;;;4.78;;
64199;SDS011;50516;52.272;5.136;2023-04-01T18:53:39;6.60;;;5.15;;
64199;SDS011;50516;52.272;5.136;2023-04-01T18:56:13;7.13;;;5.00;;
64199;SDS011;50516;52.272;5.136;2023-04-01T19:01:39;7.65;;;6.05;;
64199;SDS011;50516;52.272;5.136;2023-04-01T19:04:30;8.18;;;5.75;;
64199;SDS011;50516;52.272;5.136;2023-04-01T19:09:51;7.38;;;6.18;;
64199;SDS011;50516;52.272;5.136;2023-04-01T19:12:28;8.80;;;5.50;;
64199;SDS011;50516;52.272;5.136;2023-04-01T19:15:02;9.68;;;5.50;;
64199;SDS011;50516;52.272;5.136;2023-04-01T19:21:07;8.57;;;5.57;;
64199;SDS011;50516;52.272;5.136;2023-04-01T19:26:25;9.07;;;6.53;;
64199;SDS011;50516;52.272;5.136;2023-04-01T19:38:01;8.75;;;6.22;;
64199;SDS011;50516;52.272;5.136;2023-04-01T19:46:02;7.63;;;6.05;;
64199;SDS011;50516;52.272;5.136;2023-04-01T19:54:36;8.60;;;6.15;;
64199;SDS011;50516;52.272;5.136;2023-04-01T19:57:09;6.60;;;5.60;;
64199;SDS011;50516;52.272;5.136;2023-04-01T20:00:09;10.80;;;5.97;;
64199;SDS011;50516;52.272;5.136;2023-04-01T20:16:11;9.57;;;7.32;;
64199;SDS011;50516;52.272;5.136;2023-04-01T20:18:44;9.90;;;6.88;;
64199;SDS011;50516;52.272;5.136;2023-04-01T20:26:11;8.95;;;6.80;;
64199;SDS011;50516;52.272;5.136;2023-04-01T20:28:42;10.75;;;6.93;;
64199;SDS011;50516;52.272;5.136;2023-04-01T20:31:42;9.80;;;6.72;;
64199;SDS011;50516;52.272;5.136;2023-04-01T20:34:27;9.35;;;7.43;;
64199;SDS011;50516;52.272;5.136;2023-04-01T20:42:57;9.10;;;6.03;;
64199;SDS011;50516;52.272;5.136;2023-04-01T20:45:57;7.53;;;5.85;;
64199;SDS011;50516;52.272;5.136;2023-04-01T20:51:24;7.38;;;5.82;;
64199;SDS011;50516;52.272;5.136;2023-04-01T20:54:01;9.52;;;6.28;;
64199;SDS011;50516;52.272;5.136;2023-04-01T21:07:21;8.05;;;5.97;;
64199;SDS011;50516;52.272;5.136;2023-04-01T21:11:10;8.20;;;5.90;;
64199;SDS011;50516;52.272;5.136;2023-04-01T21:13:36;7.78;;;5.70;;
64199;SDS011;50516;52.272;5.136;2023-04-01T21:18:59;8.37;;;6.33;;
64199;SDS011;50516;52.272;5.136;2023-04-01T21:34:42;8.82;;;6.25;;
64199;SDS011;50516;52.272;5.136;2023-04-01T21:37:33;9.13;;;6.30;;
64199;SDS011;50516;52.272;5.136;2023-04-01T21:40:14;10.40;;;6.78;;
64199;SDS011;50516;52.272;5.136;2023-04-01T21:51:19;8.48;;;6.78;;
64199;SDS011;50516;52.272;5.136;2023-04-01T22:03:20;9.57;;;7.63;;
64199;SDS011;50516;52.272;5.136;2023-04-01T22:11:11;11.35;;;8.40;;
64199;SDS011;50516;52.272;5.136;2023-04-01T22:19:17;12.65;;;7.55;;
64199;SDS011;50516;52.272;5.136;2023-04-01T22:33:14;10.80;;;6.95;;
64199;SDS011;50516;52.272;5.136;2023-04-01T22:35:56;13.48;;;8.60;;
64199;SDS011;50516;52.272;5.136;2023-04-01T22:43:43;16.33;;;9.18;;
64199;SDS011;50516;52.272;5.136;2023-04-01T22:49:15;11.27;;;7.35;;
64199;SDS011;50516;52.272;5.136;2023-04-01T22:54:31;13.13;;;7.97;;
64199;SDS011;50516;52.272;5.136;2023-04-01T22:57:11;13.30;;;9.40;;
64199;SDS011;50516;52.272;5.136;2023-04-01T22:59:54;13.02;;;8.98;;
64199;SDS011;50516;52.272;5.136;2023-04-01T23:02:23;15.30;;;8.52;;
64199;SDS011;50516;52.272;5.136;2023-04-01T23:04:58;11.07;;;7.85;;
64199;SDS011;50516;52.272;5.136;2023-04-01T23:07:33;14.60;;;8.00;;
64199;SDS011;50516;52.272;5.136;2023-04-01T23:10:13;13.30;;;8.15;;
64199;SDS011;50516;52.272;5.136;2023-04-01T23:12:43;13.45;;;8.10;;
64199;SDS011;50516;52.272;5.136;2023-04-01T23:15:14;14.15;;;7.68;;
64199;SDS011;50516;52.272;5.136;2023-04-01T23:38:47;16.77;;;9.77;;
64199;SDS011;50516;52.272;5.136;2023-04-01T23:41:22;21.50;;;11.18;;
64199;SDS011;50516;52.272;5.136;2023-04-01T23:46:37;13.60;;;10.05;;
64199;SDS011;50516;52.272;5.136;2023-04-01T23:49:04;15.77;;;10.13;;
64199;SDS011;50516;52.272;5.136;2023-04-01T23:51:37;17.52;;;10.27;;
64199;SDS011;50516;52.272;5.136;2023-04-01T23:54:17;18.95;;;10.10;;
64199;SDS011;50516;52.272;5.136;2023-04-01T23:56:55;17.75;;;9.60;;
64199;SDS011;50516;52.272;5.136;2023-04-01T23:59:23;18.23;;;10.05;;
